sensor_id;sensor_type;location;lat;lon;timestamp;P1;durP1;ratioP1;P2;durP2;ratioP2
72115;SDS011;59991;52.140;5.428;2023-03-16T00:00:19;6.82;;;5.00;;
72115;SDS011;59991;52.140;5.428;2023-03-16T00:00:52;6.75;;;4.95;;
72115;SDS011;59991;52.140;5.428;2023-03-16T00:01:24;6.22;;;5.20;;
72115;SDS011;59991;52.140;5.428;2023-03-16T00:01:55;5.90;;;5.50;;
72115;SDS011;59991;52.140;5.428;2023-03-16T00:02:27;4.77;;;4.27;;
72115;SDS011;59991;52.140;5.428;2023-03-16T00:02:58;5.50;;;5.00;;
72115;SDS011;59991;52.140;5.428;2023-03-16T00:03:30;5.80;;;5.13;;
72115;SDS011;59991;52.140;5.428;2023-03-16T00:04:01;7.25;;;5.05;;
72115;SDS011;59991;52.140;5.428;2023-03-16T00:04:33;5.47;;;5.13;;
72115;SDS011;59991;52.140;5.428;2023-03-16T00:05:08;4.78;;;4.38;;
72115;SDS011;59991;52.140;5.428;2023-03-16T00:05:40;6.35;;;5.60;;
72115;SDS011;59991;52.140;5.428;2023-03-16T00:06:12;6.10;;;5.25;;
72115;SDS011;59991;52.140;5.428;2023-03-16T00:06:43;5.53;;;5.13;;
72115;SDS011;59991;52.140;5.428;2023-03-16T00:07:15;5.13;;;4.63;;
72115;SDS011;59991;52.140;5.428;2023-03-16T00:07:46;6.27;;;5.20;;
72115;SDS011;59991;52.140;5.428;2023-03-16T00:08:18;6.00;;;5.43;;
72115;SDS011;59991;52.140;5.428;2023-03-16T00:08:50;7.72;;;5.38;;
72115;SDS011;59991;52.140;5.428;2023-03-16T00:09:21;7.78;;;5.10;;
72115;SDS011;59991;52.140;5.428;2023-03-16T00:10:01;5.40;;;5.00;;
72115;SDS011;59991;52.140;5.428;2023-03-16T00:10:33;5.45;;;4.80;;
72115;SDS011;59991;52.140;5.428;2023-03-16T00:11:05;5.85;;;5.45;;
72115;SDS011;59991;52.140;5.428;2023-03-16T00:11:36;6.63;;;5.38;;
72115;SDS011;59991;52.140;5.428;2023-03-16T00:12:11;5.78;;;5.32;;
72115;SDS011;59991;52.140;5.428;2023-03-16T00:12:45;6.30;;;5.13;;
72115;SDS011;59991;52.140;5.428;2023-03-16T00:13:18;7.07;;;5.03;;
72115;SDS011;59991;52.140;5.428;2023-03-16T00:13:54;6.22;;;5.13;;
72115;SDS011;59991;52.140;5.428;2023-03-16T00:14:26;6.82;;;5.05;;
72115;SDS011;59991;52.140;5.428;2023-03-16T00:14:57;6.38;;;5.88;;
72115;SDS011;59991;52.140;5.428;2023-03-16T00:15:28;6.28;;;5.70;;
72115;SDS011;59991;52.140;5.428;2023-03-16T00:16:01;6.10;;;4.85;;
72115;SDS011;59991;52.140;5.428;2023-03-16T00:16:38;8.10;;;6.15;;
72115;SDS011;59991;52.140;5.428;2023-03-16T00:17:10;5.93;;;5.35;;
72115;SDS011;59991;52.140;5.428;2023-03-16T00:17:48;6.03;;;5.53;;
72115;SDS011;59991;52.140;5.428;2023-03-16T00:18:20;5.68;;;4.40;;
72115;SDS011;59991;52.140;5.428;2023-03-16T00:18:53;5.80;;;5.27;;
72115;SDS011;59991;52.140;5.428;2023-03-16T00:19:24;5.68;;;4.85;;
72115;SDS011;59991;52.140;5.428;2023-03-16T00:19:56;5.55;;;5.05;;
72115;SDS011;59991;52.140;5.428;2023-03-16T00:20:28;7.53;;;5.53;;
72115;SDS011;59991;52.140;5.428;2023-03-16T00:21:00;6.50;;;5.88;;
72115;SDS011;59991;52.140;5.428;2023-03-16T00:21:35;5.53;;;5.13;;
72115;SDS011;59991;52.140;5.428;2023-03-16T00:22:06;8.02;;;5.85;;
72115;SDS011;59991;52.140;5.428;2023-03-16T00:22:38;6.50;;;5.10;;
72115;SDS011;59991;52.140;5.428;2023-03-16T00:23:09;8.45;;;5.93;;
72115;SDS011;59991;52.140;5.428;2023-03-16T00:23:40;6.15;;;5.53;;
72115;SDS011;59991;52.140;5.428;2023-03-16T00:24:12;6.70;;;6.10;;
72115;SDS011;59991;52.140;5.428;2023-03-16T00:24:48;6.20;;;5.60;;
72115;SDS011;59991;52.140;5.428;2023-03-16T00:25:19;5.80;;;5.28;;
72115;SDS011;59991;52.140;5.428;2023-03-16T00:25:50;6.97;;;6.35;;
72115;SDS011;59991;52.140;5.428;2023-03-16T00:26:24;7.32;;;5.30;;
72115;SDS011;59991;52.140;5.428;2023-03-16T00:26:56;4.65;;;4.25;;
72115;SDS011;59991;52.140;5.428;2023-03-16T00:27:27;6.10;;;5.60;;
72115;SDS011;59991;52.140;5.428;2023-03-16T00:27:59;5.75;;;5.25;;
72115;SDS011;59991;52.140;5.428;2023-03-16T00:28:34;6.05;;;5.18;;
72115;SDS011;59991;52.140;5.428;2023-03-16T00:29:06;6.45;;;4.80;;
72115;SDS011;59991;52.140;5.428;2023-03-16T00:29:37;6.67;;;5.80;;
72115;SDS011;59991;52.140;5.428;2023-03-16T00:30:09;6.68;;;5.65;;
72115;SDS011;59991;52.140;5.428;2023-03-16T00:30:41;5.88;;;5.47;;
72115;SDS011;59991;52.140;5.428;2023-03-16T00:31:17;7.45;;;6.22;;
72115;SDS011;59991;52.140;5.428;2023-03-16T00:31:48;5.78;;;5.28;;
72115;SDS011;59991;52.140;5.428;2023-03-16T00:32:22;5.70;;;5.30;;
72115;SDS011;59991;52.140;5.428;2023-03-16T00:32:53;5.78;;;5.30;;
72115;SDS011;59991;52.140;5.428;2023-03-16T00:33:25;8.23;;;5.55;;
72115;SDS011;59991;52.140;5.428;2023-03-16T00:33:57;7.30;;;5.38;;
72115;SDS011;59991;52.140;5.428;2023-03-16T00:34:29;5.78;;;4.97;;
72115;SDS011;59991;52.140;5.428;2023-03-16T00:35:04;6.27;;;5.40;;
72115;SDS011;59991;52.140;5.428;2023-03-16T00:35:39;6.30;;;5.28;;
72115;SDS011;59991;52.140;5.428;2023-03-16T00:36:20;6.60;;;5.57;;
72115;SDS011;59991;52.140;5.428;2023-03-16T00:36:52;7.90;;;5.25;;
72115;SDS011;59991;52.140;5.428;2023-03-16T00:37:25;6.18;;;5.57;;
72115;SDS011;59991;52.140;5.428;2023-03-16T00:37:57;7.25;;;6.55;;
72115;SDS011;59991;52.140;5.428;2023-03-16T00:38:29;7.70;;;5.43;;
72115;SDS011;59991;52.140;5.428;2023-03-16T00:39:05;6.68;;;5.95;;
72115;SDS011;59991;52.140;5.428;2023-03-16T00:39:37;6.18;;;5.72;;
72115;SDS011;59991;52.140;5.428;2023-03-16T00:40:08;6.60;;;6.00;;
72115;SDS011;59991;52.140;5.428;2023-03-16T00:40:42;6.80;;;6.20;;
72115;SDS011;59991;52.140;5.428;2023-03-16T00:41:15;6.20;;;5.60;;
72115;SDS011;59991;52.140;5.428;2023-03-16T00:41:47;6.90;;;5.68;;
72115;SDS011;59991;52.140;5.428;2023-03-16T00:42:18;6.57;;;6.00;;
72115;SDS011;59991;52.140;5.428;2023-03-16T00:42:50;6.20;;;5.57;;
72115;SDS011;59991;52.140;5.428;2023-03-16T00:43:21;6.47;;;6.07;;
72115;SDS011;59991;52.140;5.428;2023-03-16T00:43:53;6.72;;;6.18;;
72115;SDS011;59991;52.140;5.428;2023-03-16T00:44:24;9.05;;;6.57;;
72115;SDS011;59991;52.140;5.428;2023-03-16T00:44:56;6.22;;;5.72;;
72115;SDS011;59991;52.140;5.428;2023-03-16T00:45:28;7.18;;;5.95;;
72115;SDS011;59991;52.140;5.428;2023-03-16T00:46:00;7.07;;;6.37;;
72115;SDS011;59991;52.140;5.428;2023-03-16T00:46:37;6.00;;;5.50;;
72115;SDS011;59991;52.140;5.428;2023-03-16T00:47:08;9.82;;;6.47;;
72115;SDS011;59991;52.140;5.428;2023-03-16T00:47:44;6.72;;;6.22;;
72115;SDS011;59991;52.140;5.428;2023-03-16T00:48:15;8.75;;;6.93;;
72115;SDS011;59991;52.140;5.428;2023-03-16T00:48:48;6.90;;;5.85;;
72115;SDS011;59991;52.140;5.428;2023-03-16T00:49:20;7.85;;;6.63;;
72115;SDS011;59991;52.140;5.428;2023-03-16T00:49:52;6.35;;;5.75;;
72115;SDS011;59991;52.140;5.428;2023-03-16T00:50:24;6.68;;;6.18;;
72115;SDS011;59991;52.140;5.428;2023-03-16T00:50:56;6.50;;;6.00;;
72115;SDS011;59991;52.140;5.428;2023-03-16T00:51:27;6.63;;;5.93;;
72115;SDS011;59991;52.140;5.428;2023-03-16T00:52:01;6.50;;;5.90;;
72115;SDS011;59991;52.140;5.428;2023-03-16T00:52:33;6.53;;;5.97;;
72115;SDS011;59991;52.140;5.428;2023-03-16T00:53:05;7.55;;;5.72;;
72115;SDS011;59991;52.140;5.428;2023-03-16T00:53:37;6.25;;;5.68;;
72115;SDS011;59991;52.140;5.428;2023-03-16T00:54:10;6.82;;;5.97;;
72115;SDS011;59991;52.140;5.428;2023-03-16T00:54:43;5.97;;;5.50;;
72115;SDS011;59991;52.140;5.428;2023-03-16T00:55:15;6.05;;;5.55;;
72115;SDS011;59991;52.140;5.428;2023-03-16T00:55:47;6.60;;;6.00;;
72115;SDS011;59991;52.140;5.428;2023-03-16T00:56:18;7.80;;;7.00;;
72115;SDS011;59991;52.140;5.428;2023-03-16T00:56:50;6.03;;;5.53;;
72115;SDS011;59991;52.140;5.428;2023-03-16T00:57:23;6.63;;;6.00;;
72115;SDS011;59991;52.140;5.428;2023-03-16T00:57:55;6.75;;;6.20;;
72115;SDS011;59991;52.140;5.428;2023-03-16T00:58:27;7.07;;;6.45;;
72115;SDS011;59991;52.140;5.428;2023-03-16T00:58:58;7.00;;;6.30;;
72115;SDS011;59991;52.140;5.428;2023-03-16T00:59:30;6.15;;;5.55;;
72115;SDS011;59991;52.140;5.428;2023-03-16T01:00:01;6.50;;;6.00;;
72115;SDS011;59991;52.140;5.428;2023-03-16T01:00:42;7.72;;;6.35;;
72115;SDS011;59991;52.140;5.428;2023-03-16T01:01:15;7.63;;;5.85;;
72115;SDS011;59991;52.140;5.428;2023-03-16T01:01:49;7.57;;;6.78;;
72115;SDS011;59991;52.140;5.428;2023-03-16T01:02:20;6.10;;;5.60;;
72115;SDS011;59991;52.140;5.428;2023-03-16T01:02:55;6.68;;;6.18;;
72115;SDS011;59991;52.140;5.428;2023-03-16T01:03:44;7.43;;;5.93;;
72115;SDS011;59991;52.140;5.428;2023-03-16T01:04:16;6.90;;;6.30;;
72115;SDS011;59991;52.140;5.428;2023-03-16T01:04:47;5.70;;;5.30;;
72115;SDS011;59991;52.140;5.428;2023-03-16T01:05:19;6.57;;;6.07;;
72115;SDS011;59991;52.140;5.428;2023-03-16T01:05:50;6.05;;;5.60;;
72115;SDS011;59991;52.140;5.428;2023-03-16T01:06:22;8.45;;;6.72;;
72115;SDS011;59991;52.140;5.428;2023-03-16T01:06:53;7.97;;;7.28;;
72115;SDS011;59991;52.140;5.428;2023-03-16T01:07:25;6.65;;;6.03;;
72115;SDS011;59991;52.140;5.428;2023-03-16T01:07:56;8.33;;;6.80;;
72115;SDS011;59991;52.140;5.428;2023-03-16T01:08:29;7.00;;;6.40;;
72115;SDS011;59991;52.140;5.428;2023-03-16T01:09:03;6.63;;;5.90;;
72115;SDS011;59991;52.140;5.428;2023-03-16T01:09:35;7.63;;;6.65;;
72115;SDS011;59991;52.140;5.428;2023-03-16T01:10:07;8.23;;;6.70;;
72115;SDS011;59991;52.140;5.428;2023-03-16T01:10:40;8.50;;;6.80;;
72115;SDS011;59991;52.140;5.428;2023-03-16T01:11:13;8.52;;;6.47;;
72115;SDS011;59991;52.140;5.428;2023-03-16T01:11:46;6.53;;;5.93;;
72115;SDS011;59991;52.140;5.428;2023-03-16T01:12:21;7.22;;;6.68;;
72115;SDS011;59991;52.140;5.428;2023-03-16T01:12:53;6.63;;;6.03;;
72115;SDS011;59991;52.140;5.428;2023-03-16T01:13:26;7.00;;;6.33;;
72115;SDS011;59991;52.140;5.428;2023-03-16T01:13:57;8.38;;;5.72;;
72115;SDS011;59991;52.140;5.428;2023-03-16T01:14:29;6.65;;;6.05;;
72115;SDS011;59991;52.140;5.428;2023-03-16T01:15:01;7.75;;;7.05;;
72115;SDS011;59991;52.140;5.428;2023-03-16T01:15:32;8.27;;;7.20;;
72115;SDS011;59991;52.140;5.428;2023-03-16T01:16:05;6.70;;;6.00;;
72115;SDS011;59991;52.140;5.428;2023-03-16T01:16:36;11.32;;;6.55;;
72115;SDS011;59991;52.140;5.428;2023-03-16T01:17:08;6.25;;;5.72;;
72115;SDS011;59991;52.140;5.428;2023-03-16T01:17:40;7.30;;;6.68;;
72115;SDS011;59991;52.140;5.428;2023-03-16T01:18:11;6.63;;;6.03;;
72115;SDS011;59991;52.140;5.428;2023-03-16T01:18:43;6.97;;;6.27;;
72115;SDS011;59991;52.140;5.428;2023-03-16T01:19:15;8.95;;;6.53;;
72115;SDS011;59991;52.140;5.428;2023-03-16T01:19:47;6.43;;;5.80;;
72115;SDS011;59991;52.140;5.428;2023-03-16T01:20:19;7.40;;;6.70;;
72115;SDS011;59991;52.140;5.428;2023-03-16T01:20:50;8.27;;;6.15;;
72115;SDS011;59991;52.140;5.428;2023-03-16T01:21:22;7.60;;;6.90;;
72115;SDS011;59991;52.140;5.428;2023-03-16T01:21:54;8.13;;;7.05;;
72115;SDS011;59991;52.140;5.428;2023-03-16T01:22:25;6.57;;;6.03;;
72115;SDS011;59991;52.140;5.428;2023-03-16T01:22:57;10.07;;;6.18;;
72115;SDS011;59991;52.140;5.428;2023-03-16T01:23:29;6.97;;;6.35;;
72115;SDS011;59991;52.140;5.428;2023-03-16T01:24:01;9.20;;;5.80;;
72115;SDS011;59991;52.140;5.428;2023-03-16T01:24:33;7.15;;;6.47;;
72115;SDS011;59991;52.140;5.428;2023-03-16T01:25:09;7.60;;;6.80;;
72115;SDS011;59991;52.140;5.428;2023-03-16T01:25:42;7.00;;;6.25;;
72115;SDS011;59991;52.140;5.428;2023-03-16T01:26:13;7.43;;;6.55;;
72115;SDS011;59991;52.140;5.428;2023-03-16T01:26:48;8.93;;;6.57;;
72115;SDS011;59991;52.140;5.428;2023-03-16T01:27:20;6.53;;;5.70;;
72115;SDS011;59991;52.140;5.428;2023-03-16T01:27:52;8.05;;;7.07;;
72115;SDS011;59991;52.140;5.428;2023-03-16T01:28:24;6.68;;;6.15;;
72115;SDS011;59991;52.140;5.428;2023-03-16T01:28:57;6.75;;;6.15;;
72115;SDS011;59991;52.140;5.428;2023-03-16T01:29:29;7.00;;;6.40;;
72115;SDS011;59991;52.140;5.428;2023-03-16T01:30:00;6.90;;;6.28;;
72115;SDS011;59991;52.140;5.428;2023-03-16T01:30:51;6.97;;;6.35;;
72115;SDS011;59991;52.140;5.428;2023-03-16T01:31:29;8.43;;;6.88;;
72115;SDS011;59991;52.140;5.428;2023-03-16T01:32:02;8.18;;;6.28;;
72115;SDS011;59991;52.140;5.428;2023-03-16T01:32:34;7.60;;;6.80;;
72115;SDS011;59991;52.140;5.428;2023-03-16T01:33:06;8.43;;;6.47;;
72115;SDS011;59991;52.140;5.428;2023-03-16T01:33:37;11.20;;;7.30;;
72115;SDS011;59991;52.140;5.428;2023-03-16T01:34:09;7.60;;;6.93;;
72115;SDS011;59991;52.140;5.428;2023-03-16T01:34:46;7.93;;;6.70;;
72115;SDS011;59991;52.140;5.428;2023-03-16T01:35:17;7.50;;;6.23;;
72115;SDS011;59991;52.140;5.428;2023-03-16T01:35:55;6.45;;;5.85;;
72115;SDS011;59991;52.140;5.428;2023-03-16T01:36:31;7.15;;;6.30;;
72115;SDS011;59991;52.140;5.428;2023-03-16T01:37:02;6.95;;;6.45;;
72115;SDS011;59991;52.140;5.428;2023-03-16T01:37:34;7.50;;;6.35;;
72115;SDS011;59991;52.140;5.428;2023-03-16T01:38:05;5.97;;;5.55;;
72115;SDS011;59991;52.140;5.428;2023-03-16T01:38:37;7.07;;;6.35;;
72115;SDS011;59991;52.140;5.428;2023-03-16T01:39:09;6.70;;;6.10;;
72115;SDS011;59991;52.140;5.428;2023-03-16T01:39:41;7.43;;;6.80;;
72115;SDS011;59991;52.140;5.428;2023-03-16T01:40:14;8.10;;;6.28;;
72115;SDS011;59991;52.140;5.428;2023-03-16T01:40:46;7.10;;;5.93;;
72115;SDS011;59991;52.140;5.428;2023-03-16T01:41:21;6.10;;;5.70;;
72115;SDS011;59991;52.140;5.428;2023-03-16T01:41:52;7.35;;;6.72;;
72115;SDS011;59991;52.140;5.428;2023-03-16T01:42:24;7.05;;;6.30;;
72115;SDS011;59991;52.140;5.428;2023-03-16T01:43:00;8.15;;;6.57;;
72115;SDS011;59991;52.140;5.428;2023-03-16T01:43:35;6.30;;;5.70;;
72115;SDS011;59991;52.140;5.428;2023-03-16T01:44:10;7.75;;;7.05;;
72115;SDS011;59991;52.140;5.428;2023-03-16T01:46:29;6.20;;;5.60;;
72115;SDS011;59991;52.140;5.428;2023-03-16T01:47:01;7.90;;;7.00;;
72115;SDS011;59991;52.140;5.428;2023-03-16T01:47:32;6.72;;;6.03;;
72115;SDS011;59991;52.140;5.428;2023-03-16T01:48:08;6.68;;;6.07;;
72115;SDS011;59991;52.140;5.428;2023-03-16T01:48:44;10.30;;;7.03;;
72115;SDS011;59991;52.140;5.428;2023-03-16T01:49:26;6.95;;;6.40;;
72115;SDS011;59991;52.140;5.428;2023-03-16T01:50:03;6.50;;;5.93;;
72115;SDS011;59991;52.140;5.428;2023-03-16T01:50:35;8.30;;;6.03;;
72115;SDS011;59991;52.140;5.428;2023-03-16T01:51:11;6.55;;;6.05;;
72115;SDS011;59991;52.140;5.428;2023-03-16T01:51:48;9.98;;;6.55;;
72115;SDS011;59991;52.140;5.428;2023-03-16T01:52:26;6.32;;;5.72;;
72115;SDS011;59991;52.140;5.428;2023-03-16T01:53:03;7.73;;;6.77;;
72115;SDS011;59991;52.140;5.428;2023-03-16T01:53:35;7.90;;;6.05;;
72115;SDS011;59991;52.140;5.428;2023-03-16T01:54:10;7.20;;;6.45;;
72115;SDS011;59991;52.140;5.428;2023-03-16T01:54:47;7.53;;;6.88;;
72115;SDS011;59991;52.140;5.428;2023-03-16T01:55:22;7.25;;;6.55;;
72115;SDS011;59991;52.140;5.428;2023-03-16T01:55:53;6.35;;;5.68;;
72115;SDS011;59991;52.140;5.428;2023-03-16T01:56:26;8.52;;;7.75;;
72115;SDS011;59991;52.140;5.428;2023-03-16T01:57:08;7.72;;;6.75;;
72115;SDS011;59991;52.140;5.428;2023-03-16T01:57:44;7.15;;;6.45;;
72115;SDS011;59991;52.140;5.428;2023-03-16T01:58:17;7.07;;;6.38;;
72115;SDS011;59991;52.140;5.428;2023-03-16T01:58:48;9.27;;;6.70;;
72115;SDS011;59991;52.140;5.428;2023-03-16T01:59:23;7.60;;;6.90;;
72115;SDS011;59991;52.140;5.428;2023-03-16T02:00:02;8.65;;;7.22;;
72115;SDS011;59991;52.140;5.428;2023-03-16T02:00:40;7.80;;;7.07;;
72115;SDS011;59991;52.140;5.428;2023-03-16T02:01:12;6.43;;;5.82;;
72115;SDS011;59991;52.140;5.428;2023-03-16T02:01:44;6.72;;;6.13;;
72115;SDS011;59991;52.140;5.428;2023-03-16T02:02:18;8.30;;;7.43;;
72115;SDS011;59991;52.140;5.428;2023-03-16T02:02:57;7.47;;;6.88;;
72115;SDS011;59991;52.140;5.428;2023-03-16T02:03:34;7.32;;;6.60;;
72115;SDS011;59991;52.140;5.428;2023-03-16T02:05:07;7.47;;;6.57;;
72115;SDS011;59991;52.140;5.428;2023-03-16T02:05:49;6.93;;;6.22;;
72115;SDS011;59991;52.140;5.428;2023-03-16T02:06:25;7.40;;;6.53;;
72115;SDS011;59991;52.140;5.428;2023-03-16T02:06:56;7.65;;;6.95;;
72115;SDS011;59991;52.140;5.428;2023-03-16T02:07:30;8.32;;;6.97;;
72115;SDS011;59991;52.140;5.428;2023-03-16T02:08:04;7.15;;;6.53;;
72115;SDS011;59991;52.140;5.428;2023-03-16T02:08:38;7.50;;;6.80;;
72115;SDS011;59991;52.140;5.428;2023-03-16T02:09:10;7.55;;;6.80;;
72115;SDS011;59991;52.140;5.428;2023-03-16T02:09:43;9.38;;;7.20;;
72115;SDS011;59991;52.140;5.428;2023-03-16T02:10:17;9.20;;;6.85;;
72115;SDS011;59991;52.140;5.428;2023-03-16T02:10:50;8.43;;;7.63;;
72115;SDS011;59991;52.140;5.428;2023-03-16T02:11:24;10.00;;;7.22;;
72115;SDS011;59991;52.140;5.428;2023-03-16T02:11:56;7.22;;;6.60;;
72115;SDS011;59991;52.140;5.428;2023-03-16T02:12:28;7.07;;;6.45;;
72115;SDS011;59991;52.140;5.428;2023-03-16T02:13:00;7.80;;;6.95;;
72115;SDS011;59991;52.140;5.428;2023-03-16T02:13:32;9.15;;;6.05;;
72115;SDS011;59991;52.140;5.428;2023-03-16T02:14:08;7.10;;;6.40;;
72115;SDS011;59991;52.140;5.428;2023-03-16T02:14:41;7.93;;;7.20;;
72115;SDS011;59991;52.140;5.428;2023-03-16T02:15:13;6.80;;;6.20;;
72115;SDS011;59991;52.140;5.428;2023-03-16T02:15:45;8.05;;;7.25;;
72115;SDS011;59991;52.140;5.428;2023-03-16T02:16:17;7.40;;;6.70;;
72115;SDS011;59991;52.140;5.428;2023-03-16T02:16:50;6.85;;;6.35;;
72115;SDS011;59991;52.140;5.428;2023-03-16T02:17:26;11.13;;;8.23;;
72115;SDS011;59991;52.140;5.428;2023-03-16T02:17:59;7.57;;;6.88;;
72115;SDS011;59991;52.140;5.428;2023-03-16T02:18:30;8.15;;;7.53;;
72115;SDS011;59991;52.140;5.428;2023-03-16T02:19:02;7.72;;;6.70;;
72115;SDS011;59991;52.140;5.428;2023-03-16T02:19:44;6.65;;;5.93;;
72115;SDS011;59991;52.140;5.428;2023-03-16T02:22:05;7.40;;;6.80;;
72115;SDS011;59991;52.140;5.428;2023-03-16T02:22:38;7.67;;;6.97;;
72115;SDS011;59991;52.140;5.428;2023-03-16T02:23:14;7.10;;;6.57;;
72115;SDS011;59991;52.140;5.428;2023-03-16T02:23:51;6.93;;;6.32;;
72115;SDS011;59991;52.140;5.428;2023-03-16T02:24:23;11.68;;;7.32;;
72115;SDS011;59991;52.140;5.428;2023-03-16T02:24:55;8.43;;;7.60;;
72115;SDS011;59991;52.140;5.428;2023-03-16T02:25:38;7.13;;;6.53;;
72115;SDS011;59991;52.140;5.428;2023-03-16T02:26:16;6.88;;;6.18;;
72115;SDS011;59991;52.140;5.428;2023-03-16T02:27:08;10.18;;;7.20;;
72115;SDS011;59991;52.140;5.428;2023-03-16T02:27:46;7.97;;;7.25;;
72115;SDS011;59991;52.140;5.428;2023-03-16T02:28:30;7.93;;;6.50;;
72115;SDS011;59991;52.140;5.428;2023-03-16T02:30:34;6.85;;;6.25;;
72115;SDS011;59991;52.140;5.428;2023-03-16T02:31:06;7.07;;;6.38;;
72115;SDS011;59991;52.140;5.428;2023-03-16T02:31:37;7.70;;;6.90;;
72115;SDS011;59991;52.140;5.428;2023-03-16T02:32:09;8.07;;;7.22;;
72115;SDS011;59991;52.140;5.428;2023-03-16T02:32:42;7.00;;;6.40;;
72115;SDS011;59991;52.140;5.428;2023-03-16T02:33:16;7.65;;;6.95;;
72115;SDS011;59991;52.140;5.428;2023-03-16T02:33:48;8.05;;;7.22;;
72115;SDS011;59991;52.140;5.428;2023-03-16T02:34:22;8.13;;;7.25;;
72115;SDS011;59991;52.140;5.428;2023-03-16T02:34:55;7.53;;;6.82;;
72115;SDS011;59991;52.140;5.428;2023-03-16T02:35:28;7.43;;;6.73;;
72115;SDS011;59991;52.140;5.428;2023-03-16T02:35:59;6.88;;;6.30;;
72115;SDS011;59991;52.140;5.428;2023-03-16T02:36:31;7.60;;;7.00;;
72115;SDS011;59991;52.140;5.428;2023-03-16T02:37:04;7.38;;;6.78;;
72115;SDS011;59991;52.140;5.428;2023-03-16T02:37:37;9.05;;;6.32;;
72115;SDS011;59991;52.140;5.428;2023-03-16T02:38:09;10.95;;;7.68;;
72115;SDS011;59991;52.140;5.428;2023-03-16T02:38:41;7.93;;;7.10;;
72115;SDS011;59991;52.140;5.428;2023-03-16T02:39:12;11.90;;;8.38;;
72115;SDS011;59991;52.140;5.428;2023-03-16T02:39:44;7.75;;;7.03;;
72115;SDS011;59991;52.140;5.428;2023-03-16T02:40:57;7.97;;;7.37;;
72115;SDS011;59991;52.140;5.428;2023-03-16T02:41:33;6.97;;;6.38;;
72115;SDS011;59991;52.140;5.428;2023-03-16T02:42:08;7.22;;;6.65;;
72115;SDS011;59991;52.140;5.428;2023-03-16T02:42:48;7.22;;;6.45;;
72115;SDS011;59991;52.140;5.428;2023-03-16T02:43:46;7.45;;;6.40;;
72115;SDS011;59991;52.140;5.428;2023-03-16T02:44:31;5.90;;;5.30;;
72115;SDS011;59991;52.140;5.428;2023-03-16T02:45:06;7.10;;;6.45;;
72115;SDS011;59991;52.140;5.428;2023-03-16T02:45:40;7.75;;;7.00;;
72115;SDS011;59991;52.140;5.428;2023-03-16T02:46:15;7.00;;;6.35;;
72115;SDS011;59991;52.140;5.428;2023-03-16T02:46:50;7.03;;;6.53;;
72115;SDS011;59991;52.140;5.428;2023-03-16T02:47:31;8.27;;;6.93;;
72115;SDS011;59991;52.140;5.428;2023-03-16T02:48:06;7.43;;;6.60;;
72115;SDS011;59991;52.140;5.428;2023-03-16T02:48:57;6.53;;;5.93;;
72115;SDS011;59991;52.140;5.428;2023-03-16T02:49:35;7.22;;;6.63;;
72115;SDS011;59991;52.140;5.428;2023-03-16T02:50:10;7.38;;;6.68;;
72115;SDS011;59991;52.140;5.428;2023-03-16T02:50:45;7.10;;;6.50;;
72115;SDS011;59991;52.140;5.428;2023-03-16T02:51:18;8.85;;;7.88;;
72115;SDS011;59991;52.140;5.428;2023-03-16T02:51:50;6.97;;;6.35;;
72115;SDS011;59991;52.140;5.428;2023-03-16T02:52:22;8.80;;;6.50;;
72115;SDS011;59991;52.140;5.428;2023-03-16T02:52:53;8.77;;;7.93;;
72115;SDS011;59991;52.140;5.428;2023-03-16T02:53:25;6.80;;;6.33;;
72115;SDS011;59991;52.140;5.428;2023-03-16T02:53:57;10.07;;;6.85;;
72115;SDS011;59991;52.140;5.428;2023-03-16T02:54:28;7.78;;;6.53;;
72115;SDS011;59991;52.140;5.428;2023-03-16T02:55:00;7.57;;;6.95;;
72115;SDS011;59991;52.140;5.428;2023-03-16T02:55:31;8.35;;;7.70;;
72115;SDS011;59991;52.140;5.428;2023-03-16T02:56:03;8.43;;;7.60;;
72115;SDS011;59991;52.140;5.428;2023-03-16T02:56:35;7.90;;;7.07;;
72115;SDS011;59991;52.140;5.428;2023-03-16T02:57:06;9.07;;;7.20;;
72115;SDS011;59991;52.140;5.428;2023-03-16T02:57:38;8.38;;;7.55;;
72115;SDS011;59991;52.140;5.428;2023-03-16T02:58:09;8.45;;;7.43;;
72115;SDS011;59991;52.140;5.428;2023-03-16T02:58:41;7.60;;;7.00;;
72115;SDS011;59991;52.140;5.428;2023-03-16T02:59:13;8.57;;;6.40;;
72115;SDS011;59991;52.140;5.428;2023-03-16T02:59:44;8.48;;;6.80;;
72115;SDS011;59991;52.140;5.428;2023-03-16T03:00:16;9.30;;;7.35;;
72115;SDS011;59991;52.140;5.428;2023-03-16T03:00:49;8.90;;;7.35;;
72115;SDS011;59991;52.140;5.428;2023-03-16T03:01:20;7.43;;;6.72;;
72115;SDS011;59991;52.140;5.428;2023-03-16T03:01:52;7.40;;;6.90;;
72115;SDS011;59991;52.140;5.428;2023-03-16T03:02:23;8.00;;;7.40;;
72115;SDS011;59991;52.140;5.428;2023-03-16T03:02:54;9.40;;;7.15;;
72115;SDS011;59991;52.140;5.428;2023-03-16T03:03:26;6.90;;;6.38;;
72115;SDS011;59991;52.140;5.428;2023-03-16T03:04:16;9.43;;;7.10;;
72115;SDS011;59991;52.140;5.428;2023-03-16T03:04:48;8.32;;;7.13;;
72115;SDS011;59991;52.140;5.428;2023-03-16T03:05:19;8.10;;;7.45;;
72115;SDS011;59991;52.140;5.428;2023-03-16T03:05:51;8.80;;;8.10;;
72115;SDS011;59991;52.140;5.428;2023-03-16T03:06:22;8.55;;;7.22;;
72115;SDS011;59991;52.140;5.428;2023-03-16T03:06:55;9.15;;;6.82;;
72115;SDS011;59991;52.140;5.428;2023-03-16T03:07:31;9.43;;;6.85;;
72115;SDS011;59991;52.140;5.428;2023-03-16T03:08:03;12.85;;;11.52;;
72115;SDS011;59991;52.140;5.428;2023-03-16T03:08:35;10.48;;;9.57;;
72115;SDS011;59991;52.140;5.428;2023-03-16T03:09:07;11.40;;;9.98;;
72115;SDS011;59991;52.140;5.428;2023-03-16T03:09:41;9.87;;;8.87;;
72115;SDS011;59991;52.140;5.428;2023-03-16T03:10:13;8.68;;;7.75;;
72115;SDS011;59991;52.140;5.428;2023-03-16T03:10:45;8.68;;;7.10;;
72115;SDS011;59991;52.140;5.428;2023-03-16T03:11:16;8.38;;;7.68;;
72115;SDS011;59991;52.140;5.428;2023-03-16T03:11:49;7.78;;;6.63;;
72115;SDS011;59991;52.140;5.428;2023-03-16T03:12:21;8.57;;;7.15;;
72115;SDS011;59991;52.140;5.428;2023-03-16T03:12:52;9.00;;;8.10;;
72115;SDS011;59991;52.140;5.428;2023-03-16T03:13:24;8.48;;;7.78;;
72115;SDS011;59991;52.140;5.428;2023-03-16T03:13:55;7.47;;;6.88;;
72115;SDS011;59991;52.140;5.428;2023-03-16T03:14:27;7.80;;;7.07;;
72115;SDS011;59991;52.140;5.428;2023-03-16T03:14:58;8.63;;;7.03;;
72115;SDS011;59991;52.140;5.428;2023-03-16T03:15:30;7.53;;;6.82;;
72115;SDS011;59991;52.140;5.428;2023-03-16T03:16:01;7.25;;;6.65;;
72115;SDS011;59991;52.140;5.428;2023-03-16T03:16:33;7.40;;;6.75;;
72115;SDS011;59991;52.140;5.428;2023-03-16T03:17:23;7.28;;;6.78;;
72115;SDS011;59991;52.140;5.428;2023-03-16T03:18:00;7.00;;;6.47;;
72115;SDS011;59991;52.140;5.428;2023-03-16T03:18:32;8.25;;;7.45;;
72115;SDS011;59991;52.140;5.428;2023-03-16T03:19:04;7.35;;;6.55;;
72115;SDS011;59991;52.140;5.428;2023-03-16T03:19:36;7.57;;;6.97;;
72115;SDS011;59991;52.140;5.428;2023-03-16T03:20:08;7.95;;;7.15;;
72115;SDS011;59991;52.140;5.428;2023-03-16T03:20:47;7.80;;;7.10;;
72115;SDS011;59991;52.140;5.428;2023-03-16T03:21:18;6.93;;;6.28;;
72115;SDS011;59991;52.140;5.428;2023-03-16T03:21:50;7.93;;;7.25;;
72115;SDS011;59991;52.140;5.428;2023-03-16T03:22:21;8.07;;;7.28;;
72115;SDS011;59991;52.140;5.428;2023-03-16T03:22:53;8.13;;;7.45;;
72115;SDS011;59991;52.140;5.428;2023-03-16T03:23:24;8.07;;;7.28;;
72115;SDS011;59991;52.140;5.428;2023-03-16T03:23:56;8.60;;;7.78;;
72115;SDS011;59991;52.140;5.428;2023-03-16T03:24:27;7.20;;;6.60;;
72115;SDS011;59991;52.140;5.428;2023-03-16T03:24:58;8.48;;;7.20;;
72115;SDS011;59991;52.140;5.428;2023-03-16T03:25:30;8.38;;;6.80;;
72115;SDS011;59991;52.140;5.428;2023-03-16T03:26:05;7.70;;;7.00;;
72115;SDS011;59991;52.140;5.428;2023-03-16T03:26:36;7.95;;;7.18;;
72115;SDS011;59991;52.140;5.428;2023-03-16T03:27:08;8.13;;;7.43;;
72115;SDS011;59991;52.140;5.428;2023-03-16T03:27:40;8.25;;;7.47;;
72115;SDS011;59991;52.140;5.428;2023-03-16T03:28:12;8.10;;;7.43;;